Time;durP1;ratioP1;P1;durP2;ratioP2;P2;SDS_P1;SDS_P2;PMS_P1;PMS_P2;Temp;Humidity;BMP_temperature;BMP_pressure;BME280_temperature;BME280_humidity;BME280_pressure;Samples;Min_cycle;Max_cycle;Signal;HPM_P1;HPM_P2
2021/04/14 00:01:10;;;;;;;5.65;2.58;;;;;;;;;;3586517;40;20045;-56
2021/04/14 00:03:36;;;;;;;7.38;2.75;;;;;;;;;;3587867;39;20040;-54
2021/04/14 00:06:03;;;;;;;7.25;2.80;;;;;;;;;;3586341;40;20040;-55
2021/04/14 00:08:30;;;;;;;9.90;3.00;;;;;;;;;;3587463;40;20384;-52
2021/04/14 00:10:56;;;;;;;6.13;2.58;;;;;;;;;;3587518;40;20036;-56
2021/04/14 00:13:25;;;;;;;5.88;3.00;;;;;;;;;;3588298;40;20039;-55
2021/04/14 00:15:53;;;;;;;6.00;3.05;;;;;;;;;;3586909;40;20033;-55
2021/04/14 00:18:20;;;;;;;7.18;3.38;;;;;;;;;;3588046;40;20033;-53
2021/04/14 00:20:46;;;;;;;12.50;3.35;;;;;;;;;;3588432;40;20121;-54
2021/04/14 00:23:12;;;;;;;6.93;3.60;;;;;;;;;;3587589;40;20048;-50
2021/04/14 00:25:42;;;;;;;8.95;3.90;;;;;;;;;;3587488;40;20098;-51
2021/04/14 00:28:09;;;;;;;6.40;3.55;;;;;;;;;;3587024;40;20113;-53
2021/04/14 00:30:34;;;;;;;5.82;3.25;;;;;;;;;;3587407;40;20055;-53
2021/04/14 00:33:00;;;;;;;8.65;3.28;;;;;;;;;;3590598;39;20041;-53
2021/04/14 00:35:26;;;;;;;8.57;3.75;;;;;;;;;;3587020;40;20047;-52
2021/04/14 00:37:52;;;;;;;5.78;3.22;;;;;;;;;;3587258;40;20056;-53
2021/04/14 00:40:22;;;;;;;6.90;4.10;;;;;;;;;;3588241;40;20085;-54
2021/04/14 00:42:48;;;;;;;4.90;3.20;;;;;;;;;;3587931;40;20032;-51
2021/04/14 00:45:14;;;;;;;6.63;3.78;;;;;;;;;;3587718;40;20025;-55
2021/04/14 00:47:39;;;;;;;5.63;2.75;;;;;;;;;;3586759;39;20570;-54
2021/04/14 00:50:08;;;;;;;12.25;3.20;;;;;;;;;;3586020;40;20037;-50
2021/04/14 00:52:34;;;;;;;5.07;2.92;;;;;;;;;;3587378;40;20429;-55
2021/04/14 00:54:59;;;;;;;5.68;3.10;;;;;;;;;;3586807;40;20047;-53
2021/04/14 00:57:24;;;;;;;7.30;2.88;;;;;;;;;;3587996;40;20052;-54
2021/04/14 00:59:50;;;;;;;7.15;3.22;;;;;;;;;;3588030;39;20113;-54
2021/04/14 01:02:15;;;;;;;5.35;2.85;;;;;;;;;;3587675;40;20051;-52
2021/04/14 01:04:42;;;;;;;13.45;3.63;;;;;;;;;;3588511;40;20043;-53
2021/04/14 01:07:08;;;;;;;4.53;2.65;;;;;;;;;;3588754;40;20062;-53
2021/04/14 01:09:33;;;;;;;6.43;3.35;;;;;;;;;;3589010;40;20118;-50
2021/04/14 01:11:59;;;;;;;5.85;2.90;;;;;;;;;;3588265;40;20043;-50
2021/04/14 01:14:24;;;;;;;7.03;3.22;;;;;;;;;;3588999;40;20036;-55
2021/04/14 01:16:49;;;;;;;7.82;3.60;;;;;;;;;;3588806;39;20032;-52
2021/04/14 01:19:15;;;;;;;8.35;2.80;;;;;;;;;;3588779;40;20361;-56
2021/04/14 01:21:42;;;;;;;5.97;2.65;;;;;;;;;;3589334;40;20083;-52
2021/04/14 01:24:13;;;;;;;7.03;3.22;;;;;;;;;;3591361;39;20098;-54
2021/04/14 01:26:39;;;;;;;8.90;2.65;;;;;;;;;;3588674;40;20032;-53
2021/04/14 01:29:06;;;;;;;5.28;2.30;;;;;;;;;;3589217;40;20040;-53
2021/04/14 01:31:34;;;;;;;4.47;2.78;;;;;;;;;;3588688;40;20052;-53
2021/04/14 01:34:05;;;;;;;9.82;3.30;;;;;;;;;;3589111;40;20037;-52
2021/04/14 01:36:31;;;;;;;;;;;;;;;;;;3589839;40;20368;-53
2021/04/14 01:38:57;;;;;;;6.03;2.60;;;;;;;;;;3588342;40;19942;-53
2021/04/14 01:41:22;;;;;;;4.78;2.67;;;;;;;;;;3588661;40;20044;-53
2021/04/14 01:43:48;;;;;;;7.07;2.95;;;;;;;;;;3588892;39;20024;-52
2021/04/14 01:46:13;;;;;;;7.97;3.35;;;;;;;;;;3590765;39;20428;-53
2021/04/14 01:48:39;;;;;;;5.22;2.60;;;;;;;;;;3588240;40;20296;-51
2021/04/14 01:51:05;;;;;;;6.50;3.00;;;;;;;;;;3589116;40;20037;-53
2021/04/14 01:53:30;;;;;;;5.18;2.60;;;;;;;;;;3588959;40;20058;-55
2021/04/14 01:55:56;;;;;;;11.07;3.03;;;;;;;;;;3586962;40;20036;-54
2021/04/14 01:58:23;;;;;;;8.27;2.83;;;;;;;;;;3587379;40;20029;-51
2021/04/14 02:00:54;;;;;;;4.70;2.38;;;;;;;;;;3588317;40;20039;-54
2021/04/14 02:03:19;;;;;;;5.65;2.47;;;;;;;;;;3588256;40;20029;-53
2021/04/14 02:05:45;;;;;;;5.45;2.88;;;;;;;;;;3586740;40;20272;-53
2021/04/14 02:08:12;;;;;;;8.52;3.35;;;;;;;;;;3587620;40;20037;-53
2021/04/14 02:10:37;;;;;;;6.82;3.10;;;;;;;;;;3589072;40;20033;-54
2021/04/14 02:13:09;;;;;;;8.88;3.38;;;;;;;;;;3589200;40;20028;-55
2021/04/14 02:15:35;;;;;;;7.15;3.25;;;;;;;;;;3588638;40;20035;-52
2021/04/14 02:18:01;;;;;;;4.88;3.00;;;;;;;;;;3587308;40;20052;-50
2021/04/14 02:20:27;;;;;;;6.97;3.50;;;;;;;;;;3588435;40;20060;-49
2021/04/14 02:22:53;;;;;;;9.40;2.65;;;;;;;;;;3588107;39;20292;-53
2021/04/14 02:25:21;;;;;;;8.95;3.47;;;;;;;;;;3588098;40;20048;-55
2021/04/14 02:27:47;;;;;;;7.63;2.83;;;;;;;;;;3587947;40;20083;-49
2021/04/14 02:30:24;;;;;;;6.18;2.40;;;;;;;;;;3586828;40;20052;-54
2021/04/14 02:32:49;;;;;;;6.20;2.80;;;;;;;;;;3588893;40;20037;-52
2021/04/14 02:35:15;;;;;;;5.05;2.58;;;;;;;;;;3588166;40;20152;-50
2021/04/14 02:37:40;;;;;;;4.03;2.38;;;;;;;;;;3587695;40;20364;-53
2021/04/14 02:40:08;;;;;;;5.35;2.95;;;;;;;;;;3588326;40;20028;-52
2021/04/14 02:42:34;;;;;;;5.38;2.85;;;;;;;;;;3591050;39;20035;-53
2021/04/14 02:45:10;;;;;;;11.30;2.70;;;;;;;;;;3588323;40;20068;-54
2021/04/14 02:47:36;;;;;;;4.95;2.70;;;;;;;;;;3587324;39;20477;-50
2021/04/14 02:50:06;;;;;;;6.00;3.63;;;;;;;;;;3587724;40;20048;-52
2021/04/14 02:52:32;;;;;;;5.10;2.92;;;;;;;;;;3588842;40;20040;-52
2021/04/14 02:54:57;;;;;;;6.05;3.03;;;;;;;;;;3588143;40;20051;-52
2021/04/14 02:57:23;;;;;;;8.57;3.28;;;;;;;;;;3587969;40;20435;-51
2021/04/14 02:59:48;;;;;;;8.20;3.45;;;;;;;;;;3589454;40;20036;-54
2021/04/14 03:02:14;;;;;;;4.97;2.80;;;;;;;;;;3587891;40;20037;-52
2021/04/14 03:04:39;;;;;;;5.53;3.40;;;;;;;;;;3588394;40;20037;-55
2021/04/14 03:07:05;;;;;;;5.25;2.97;;;;;;;;;;3587709;40;20068;-52
2021/04/14 03:09:30;;;;;;;8.90;3.28;;;;;;;;;;3588259;40;20036;-54
2021/04/14 03:11:56;;;;;;;6.65;3.40;;;;;;;;;;3587781;40;20052;-52
2021/04/14 03:14:21;;;;;;;4.97;2.88;;;;;;;;;;3587912;40;20037;-53
2021/04/14 03:16:47;;;;;;;9.25;3.72;;;;;;;;;;3587968;39;20109;-53
2021/04/14 03:19:12;;;;;;;5.18;3.58;;;;;;;;;;3586915;40;20047;-51
2021/04/14 03:21:38;;;;;;;8.55;3.40;;;;;;;;;;3587925;40;20025;-52
2021/04/14 03:24:04;;;;;;;7.75;3.70;;;;;;;;;;3587842;40;20065;-52
2021/04/14 03:26:29;;;;;;;6.45;3.38;;;;;;;;;;3587815;40;20036;-52
2021/04/14 03:28:55;;;;;;;7.25;3.88;;;;;;;;;;3587811;40;20383;-53
2021/04/14 03:31:20;;;;;;;4.53;2.83;;;;;;;;;;3587681;40;20029;-51
2021/04/14 03:33:46;;;;;;;7.00;3.45;;;;;;;;;;3587482;40;20549;-52
2021/04/14 03:36:12;;;;;;;11.18;4.47;;;;;;;;;;3590493;39;20044;-51
2021/04/14 03:38:38;;;;;;;8.25;4.50;;;;;;;;;;3588037;40;20041;-51
2021/04/14 03:41:04;;;;;;;11.35;4.25;;;;;;;;;;3587650;40;20039;-50
2021/04/14 03:43:30;;;;;;;11.10;4.57;;;;;;;;;;3587598;40;20032;-53
2021/04/14 03:45:58;;;;;;;15.10;4.15;;;;;;;;;;3587550;40;20082;-50
2021/04/14 03:48:24;;;;;;;10.68;4.32;;;;;;;;;;3588151;39;20350;-50
2021/04/14 03:50:50;;;;;;;6.38;3.72;;;;;;;;;;3587770;40;20056;-51
2021/04/14 03:53:25;;;;;;;6.57;3.85;;;;;;;;;;3587836;40;20032;-54
2021/04/14 03:56:09;;;;;;;11.20;3.78;;;;;;;;;;3588951;39;20356;-52
2021/04/14 03:58:37;;;;;;;9.15;3.40;;;;;;;;;;3588497;40;20088;-54
2021/04/14 04:01:06;;;;;;;11.35;4.93;;;;;;;;;;3588804;39;20408;-54
2021/04/14 04:03:31;;;;;;;9.60;4.22;;;;;;;;;;3588172;40;20028;-52
2021/04/14 04:05:57;;;;;;;8.95;3.85;;;;;;;;;;3587394;39;20513;-53
2021/04/14 04:08:23;;;;;;;6.80;3.92;;;;;;;;;;3587870;40;20044;-52
2021/04/14 04:10:48;;;;;;;7.55;4.05;;;;;;;;;;3588174;39;20065;-52
2021/04/14 04:13:16;;;;;;;7.68;4.13;;;;;;;;;;3586736;40;20377;-54
2021/04/14 04:15:41;;;;;;;7.22;4.40;;;;;;;;;;3588014;39;20280;-51
2021/04/14 04:18:07;;;;;;;6.78;4.07;;;;;;;;;;3587693;39;20028;-51
2021/04/14 04:20:33;;;;;;;9.57;7.68;;;;;;;;;;3587695;40;20512;-52
2021/04/14 04:23:00;;;;;;;6.82;4.70;;;;;;;;;;3587771;40;20034;-55
2021/04/14 04:25:30;;;;;;;11.63;5.15;;;;;;;;;;3587791;40;20276;-52
2021/04/14 04:27:55;;;;;;;17.33;5.85;;;;;;;;;;3587932;40;20032;-48
2021/04/14 04:30:28;;;;;;;18.48;9.80;;;;;;;;;;3587285;40;20085;-52
2021/04/14 04:32:54;;;;;;;10.00;5.53;;;;;;;;;;3587715;40;20133;-51
2021/04/14 04:35:21;;;;;;;7.80;4.80;;;;;;;;;;3587992;40;20402;-51
2021/04/14 04:37:46;;;;;;;16.55;9.13;;;;;;;;;;3587877;40;20043;-49
2021/04/14 04:40:13;;;;;;;12.50;7.28;;;;;;;;;;3587340;40;20061;-51
2021/04/14 04:42:38;;;;;;;14.82;6.30;;;;;;;;;;3587843;40;20040;-53
2021/04/14 04:45:06;;;;;;;9.00;5.93;;;;;;;;;;3589555;39;20029;-53
2021/04/14 04:47:32;;;;;;;14.30;5.72;;;;;;;;;;3587934;39;20041;-51
2021/04/14 04:49:57;;;;;;;10.05;4.63;;;;;;;;;;3587952;39;20129;-52
2021/04/14 04:52:23;;;;;;;6.63;4.63;;;;;;;;;;3587139;40;20033;-50
2021/04/14 04:54:48;;;;;;;14.85;4.95;;;;;;;;;;3587537;40;20069;-50
2021/04/14 04:57:14;;;;;;;11.93;4.55;;;;;;;;;;3587968;40;20329;-51
2021/04/14 04:59:39;;;;;;;15.90;4.32;;;;;;;;;;3587633;40;20148;-53
2021/04/14 05:02:05;;;;;;;8.48;4.75;;;;;;;;;;3587221;40;20045;-52
2021/04/14 05:04:30;;;;;;;13.23;6.93;;;;;;;;;;3588484;40;20097;-48
2021/04/14 05:06:56;;;;;;;15.82;7.82;;;;;;;;;;3586792;40;20068;-51
2021/04/14 05:09:22;;;;;;;9.60;6.25;;;;;;;;;;3586825;40;20037;-50
2021/04/14 05:11:47;;;;;;;12.48;5.40;;;;;;;;;;3587839;40;20056;-53
2021/04/14 05:14:13;;;;;;;9.32;4.95;;;;;;;;;;3587388;40;20333;-51
2021/04/14 05:16:39;;;;;;;12.55;6.40;;;;;;;;;;3588613;39;20111;-49
2021/04/14 05:19:04;;;;;;;10.25;5.43;;;;;;;;;;3587306;40;20054;-49
2021/04/14 05:21:32;;;;;;;10.43;5.10;;;;;;;;;;3587106;40;20071;-51
2021/04/14 05:23:58;;;;;;;7.65;4.50;;;;;;;;;;3587419;40;20108;-50
2021/04/14 05:26:23;;;;;;;7.63;4.57;;;;;;;;;;3586794;40;20305;-51
2021/04/14 05:28:49;;;;;;;7.65;4.28;;;;;;;;;;3589555;39;20364;-52
2021/04/14 05:31:14;;;;;;;6.18;4.05;;;;;;;;;;3587096;40;20036;-57
2021/04/14 05:33:39;;;;;;;7.50;4.57;;;;;;;;;;3587169;40;20041;-50
2021/04/14 05:36:05;;;;;;;8.50;4.78;;;;;;;;;;3586706;40;20044;-47
2021/04/14 05:38:31;;;;;;;6.53;4.82;;;;;;;;;;3587070;40;20037;-53
2021/04/14 05:40:58;;;;;;;7.38;4.75;;;;;;;;;;3588024;40;20118;-52
2021/04/14 05:43:26;;;;;;;8.10;4.75;;;;;;;;;;3588183;40;20048;-47
2021/04/14 05:45:58;;;;;;;13.10;4.50;;;;;;;;;;3588584;40;20083;-52
2021/04/14 05:48:24;;;;;;;9.40;4.13;;;;;;;;;;3588749;39;20032;-52
2021/04/14 05:50:49;;;;;;;8.88;4.85;;;;;;;;;;3588560;40;20040;-50
2021/04/14 05:53:16;;;;;;;11.55;5.75;;;;;;;;;;3588784;40;20118;-54
2021/04/14 05:55:41;;;;;;;6.82;4.82;;;;;;;;;;3586055;39;20063;-51
2021/04/14 05:58:07;;;;;;;8.77;4.65;;;;;;;;;;3590383;39;20389;-51
2021/04/14 06:00:33;;;;;;;9.50;4.82;;;;;;;;;;3589059;39;20064;-51
2021/04/14 06:02:59;;;;;;;9.98;4.57;;;;;;;;;;3589551;39;20032;-53
2021/04/14 06:05:25;;;;;;;10.30;4.43;;;;;;;;;;3589728;39;20067;-52
2021/04/14 06:07:50;;;;;;;7.75;4.30;;;;;;;;;;3587872;39;20073;-55
2021/04/14 06:10:20;;;;;;;10.95;4.03;;;;;;;;;;3587795;39;20116;-54
2021/04/14 06:12:47;;;;;;;8.50;4.30;;;;;;;;;;3588425;39;20452;-51
2021/04/14 06:15:16;;;;;;;9.18;4.05;;;;;;;;;;3588806;39;20044;-52
2021/04/14 06:17:42;;;;;;;17.42;12.00;;;;;;;;;;3589175;39;20032;-54
2021/04/14 06:20:10;;;;;;;17.00;6.97;;;;;;;;;;3588186;39;20035;-54
2021/04/14 06:22:36;;;;;;;17.33;9.18;;;;;;;;;;3589759;39;20025;-51
2021/04/14 06:25:07;;;;;;;16.02;6.38;;;;;;;;;;3588343;39;20044;-53
2021/04/14 06:27:59;;;;;;;8.07;5.43;;;;;;;;;;3589052;39;20120;-53
2021/04/14 06:30:22;;;;;;;7.28;5.38;;;;;;;;;;3587654;39;20040;-55
2021/04/14 06:32:48;;;;;;;11.25;4.05;;;;;;;;;;3589105;39;20036;-52
2021/04/14 06:35:15;;;;;;;6.18;3.33;;;;;;;;;;3588471;39;20047;-52
2021/04/14 06:37:41;;;;;;;13.45;4.00;;;;;;;;;;3588710;39;20457;-54
2021/04/14 06:41:03;;;;;;;5.85;3.35;;;;;;;;;;3588238;39;20033;-53
2021/04/14 06:43:17;;;;;;;10.80;3.92;;;;;;;;;;3590874;39;20249;-54
2021/04/14 06:45:52;;;;;;;9.02;3.95;;;;;;;;;;3588137;39;20361;-53
2021/04/14 06:48:32;;;;;;;9.35;3.83;;;;;;;;;;3588175;39;20028;-52
2021/04/14 06:51:25;;;;;;;7.40;4.30;;;;;;;;;;3586579;39;20067;-55
2021/04/14 06:54:04;;;;;;;6.13;3.85;;;;;;;;;;3587696;39;20422;-54
2021/04/14 06:56:31;;;;;;;5.28;3.47;;;;;;;;;;3588731;39;20036;-55
2021/04/14 06:59:02;;;;;;;9.23;4.10;;;;;;;;;;3587988;39;20525;-53
2021/04/14 07:01:40;;;;;;;7.93;3.72;;;;;;;;;;3588654;39;20052;-53
2021/04/14 07:04:12;;;;;;;7.53;3.67;;;;;;;;;;3588784;39;20040;-54
2021/04/14 07:06:40;;;;;;;9.05;3.53;;;;;;;;;;3589510;39;20070;-56
2021/04/14 07:09:14;;;;;;;10.07;3.60;;;;;;;;;;3589203;39;20375;-55
2021/04/14 07:11:41;;;;;;;7.50;3.40;;;;;;;;;;3588744;39;20028;-56
2021/04/14 07:14:08;;;;;;;8.05;3.22;;;;;;;;;;3587892;39;20039;-53
2021/04/14 07:17:11;;;;;;;12.57;3.40;;;;;;;;;;3588173;39;20452;-54
2021/04/14 07:20:06;;;;;;;8.35;3.33;;;;;;;;;;3589172;39;20411;-54
2021/04/14 07:22:42;;;;;;;6.20;2.85;;;;;;;;;;3588126;39;20047;-56
2021/04/14 07:25:29;;;;;;;6.13;3.30;;;;;;;;;;3589631;39;20133;-53
2021/04/14 07:28:14;;;;;;;10.60;3.47;;;;;;;;;;3587718;39;20062;-56
2021/04/14 07:31:10;;;;;;;7.78;3.05;;;;;;;;;;3589723;39;20032;-53
2021/04/14 07:33:41;;;;;;;5.80;2.85;;;;;;;;;;3588728;39;20039;-56
2021/04/14 07:36:40;;;;;;;10.48;2.78;;;;;;;;;;3590021;39;20053;-55
2021/04/14 07:39:29;;;;;;;7.03;2.92;;;;;;;;;;3587143;39;20033;-54
2021/04/14 07:42:23;;;;;;;11.27;2.80;;;;;;;;;;3587186;39;20288;-55
2021/04/14 07:45:18;;;;;;;7.40;2.80;;;;;;;;;;3588217;39;20351;-54
2021/04/14 07:47:49;;;;;;;6.38;2.63;;;;;;;;;;3590010;39;20036;-56
2021/04/14 07:50:15;;;;;;;5.88;2.30;;;;;;;;;;3589810;39;20629;-54
2021/04/14 07:52:40;;;;;;;6.03;2.22;;;;;;;;;;3588835;39;20051;-55
2021/04/14 07:55:26;;;;;;;12.30;2.65;;;;;;;;;;3588307;39;20076;-56
2021/04/14 07:57:52;;;;;;;5.05;2.03;;;;;;;;;;3591319;39;20040;-54
2021/04/14 08:00:26;;;;;;;6.03;1.98;;;;;;;;;;3589545;39;20137;-51
2021/04/14 08:02:51;;;;;;;3.30;1.65;;;;;;;;;;3587270;40;20041;-55
2021/04/14 08:05:27;;;;;;;6.60;2.33;;;;;;;;;;3587555;40;20028;-55
2021/04/14 08:07:53;;;;;;;6.50;2.28;;;;;;;;;;3587979;40;20024;-54
2021/04/14 08:10:24;;;;;;;5.60;2.38;;;;;;;;;;3586726;40;20234;-55
2021/04/14 08:13:01;;;;;;;7.85;2.45;;;;;;;;;;3587481;40;20048;-55
2021/04/14 08:15:42;;;;;;;5.75;1.80;;;;;;;;;;3589439;40;20038;-52
2021/04/14 08:18:17;;;;;;;5.60;1.92;;;;;;;;;;3590567;39;20041;-54
2021/04/14 08:20:45;;;;;;;4.40;1.73;;;;;;;;;;3587681;40;20035;-54
2021/04/14 08:23:19;;;;;;;4.60;2.08;;;;;;;;;;3587965;39;20029;-59
2021/04/14 08:25:48;;;;;;;7.25;2.58;;;;;;;;;;3587742;40;20028;-55
2021/04/14 08:28:25;;;;;;;4.82;1.92;;;;;;;;;;3587510;40;20036;-57
2021/04/14 08:30:50;;;;;;;5.78;2.72;;;;;;;;;;3588420;40;20075;-54
2021/04/14 08:33:19;;;;;;;4.22;1.65;;;;;;;;;;3588219;39;20051;-53
2021/04/14 08:35:48;;;;;;;4.68;1.63;;;;;;;;;;3589792;40;20036;-53
2021/04/14 08:38:32;;;;;;;7.30;2.15;;;;;;;;;;3590046;40;20047;-54
2021/04/14 08:41:01;;;;;;;6.97;2.30;;;;;;;;;;3589190;40;20029;-54
2021/04/14 08:43:42;;;;;;;6.93;2.67;;;;;;;;;;3589785;39;20053;-54
2021/04/14 08:46:15;;;;;;;4.32;2.17;;;;;;;;;;3590002;39;20661;-55
2021/04/14 08:48:44;;;;;;;8.82;1.70;;;;;;;;;;3589508;40;20040;-55
2021/04/14 08:51:13;;;;;;;4.25;1.90;;;;;;;;;;3588890;40;20044;-55
2021/04/14 08:53:42;;;;;;;3.47;1.80;;;;;;;;;;3587693;40;20050;-55
2021/04/14 08:56:07;;;;;;;6.03;1.90;;;;;;;;;;3587996;39;20028;-55
2021/04/14 08:58:33;;;;;;;6.05;2.25;;;;;;;;;;3587438;40;20040;-56
2021/04/14 09:01:58;;;;;;;;;;;;;;;;;;;;;
2021/04/14 09:05:06;;;;;;;;;;;;;;;;;;;;;
2021/04/14 09:07:57;;;;;;;6.07;1.88;;;;;;;;;;3520604;39;20653;-55
2021/04/14 09:10:33;;;;;;;4.40;2.13;;;;;;;;;;3587274;40;20120;-56
2021/04/14 09:13:01;;;;;;;8.02;1.80;;;;;;;;;;3587341;40;20051;-54
2021/04/14 09:15:26;;;;;;;6.50;1.98;;;;;;;;;;3588821;40;20029;-54
2021/04/14 09:18:01;;;;;;;5.25;1.73;;;;;;;;;;3590732;39;20031;-56
2021/04/14 09:20:31;;;;;;;5.13;2.15;;;;;;;;;;3589606;39;20065;-55
2021/04/14 09:23:10;;;;;;;5.90;1.88;;;;;;;;;;3589889;40;20043;-53
2021/04/14 09:25:50;;;;;;;5.20;1.98;;;;;;;;;;3588876;40;20638;-50
2021/04/14 09:28:28;;;;;;;5.65;1.92;;;;;;;;;;3589435;40;20037;-53
2021/04/14 09:30:56;;;;;;;7.30;1.70;;;;;;;;;;3588613;40;20045;-57
2021/04/14 09:33:37;;;;;;;2.97;1.33;;;;;;;;;;3587959;40;20088;-56
2021/04/14 09:36:04;;;;;;;;;;;;;;;;;;3588442;40;20118;-53
2021/04/14 09:38:39;;;;;;;3.97;1.55;;;;;;;;;;3589324;40;19944;-54
2021/04/14 09:41:07;;;;;;;3.33;1.40;;;;;;;;;;3589623;40;20048;-55
2021/04/14 09:43:35;;;;;;;3.15;1.60;;;;;;;;;;3588773;40;20134;-56
2021/04/14 09:46:06;;;;;;;4.25;1.85;;;;;;;;;;3588946;40;20073;-56
2021/04/14 09:48:45;;;;;;;3.50;1.88;;;;;;;;;;3589297;39;20372;-52
2021/04/14 09:51:29;;;;;;;5.18;1.90;;;;;;;;;;3589246;40;20048;-52
2021/04/14 09:53:58;;;;;;;4.50;2.08;;;;;;;;;;3591625;39;20530;-55
2021/04/14 09:56:28;;;;;;;5.13;1.45;;;;;;;;;;3588631;39;20081;-54
2021/04/14 09:59:00;;;;;;;4.10;1.42;;;;;;;;;;3590801;40;20048;-53
2021/04/14 10:01:33;;;;;;;4.90;1.90;;;;;;;;;;3588813;40;20141;-55
2021/04/14 10:04:11;;;;;;;5.38;1.75;;;;;;;;;;3588932;40;20056;-56
2021/04/14 10:06:37;;;;;;;3.72;1.63;;;;;;;;;;3588497;40;20033;-52
2021/04/14 10:09:17;;;;;;;5.05;1.73;;;;;;;;;;3587931;40;20081;-55
2021/04/14 10:11:42;;;;;;;3.65;1.52;;;;;;;;;;3588338;39;20045;-54
2021/04/14 10:14:17;;;;;;;5.28;1.83;;;;;;;;;;3587306;40;20046;-54
2021/04/14 10:16:44;;;;;;;3.95;1.80;;;;;;;;;;3588933;39;20040;-54
2021/04/14 10:19:13;;;;;;;4.80;1.92;;;;;;;;;;3588648;40;20044;-52
2021/04/14 10:21:42;;;;;;;3.15;1.67;;;;;;;;;;3588675;40;20474;-56
2021/04/14 10:24:12;;;;;;;5.10;1.67;;;;;;;;;;3589824;39;20031;-54
2021/04/14 10:26:48;;;;;;;7.23;1.60;;;;;;;;;;3588038;40;20029;-56
2021/04/14 10:29:13;;;;;;;4.80;1.98;;;;;;;;;;3588737;39;20044;-55
2021/04/14 10:31:39;;;;;;;3.05;1.40;;;;;;;;;;3587781;39;20032;-56
2021/04/14 10:34:11;;;;;;;8.65;2.15;;;;;;;;;;3591070;39;20044;-54
2021/04/14 10:36:42;;;;;;;6.82;1.65;;;;;;;;;;3588381;39;20029;-53
2021/04/14 10:39:16;;;;;;;;;;;;;;;;;;3589872;40;20077;-55
2021/04/14 10:41:43;;;;;;;6.57;2.00;;;;;;;;;;3590998;39;19984;-56
2021/04/14 10:44:31;;;;;;;6.00;2.25;;;;;;;;;;3588929;40;20036;-55
2021/04/14 10:47:07;;;;;;;4.25;1.67;;;;;;;;;;3589299;39;20036;-57
2021/04/14 10:49:36;;;;;;;3.55;1.95;;;;;;;;;;3588297;39;20080;-54
2021/04/14 10:52:10;;;;;;;6.97;2.83;;;;;;;;;;3588502;39;20043;-55
2021/04/14 10:54:35;;;;;;;4.22;2.25;;;;;;;;;;3588608;39;20044;-54
2021/04/14 10:57:07;;;;;;;4.32;2.20;;;;;;;;;;3587677;39;20372;-54
2021/04/14 10:59:34;;;;;;;7.78;2.13;;;;;;;;;;3589569;39;20040;-55
2021/04/14 11:02:00;;;;;;;5.30;1.90;;;;;;;;;;3589569;39;20362;-54
2021/04/14 11:04:40;;;;;;;6.78;2.30;;;;;;;;;;3587360;40;20040;-54
2021/04/14 11:07:10;;;;;;;5.57;2.28;;;;;;;;;;3588425;40;20032;-56
2021/04/14 11:09:39;;;;;;;7.18;3.30;;;;;;;;;;3588544;40;20050;-55
2021/04/14 11:12:10;;;;;;;9.63;2.35;;;;;;;;;;3588606;40;20036;-53
2021/04/14 11:14:39;;;;;;;4.80;2.08;;;;;;;;;;3588531;40;20118;-54
2021/04/14 11:17:07;;;;;;;4.82;2.40;;;;;;;;;;3589182;39;20355;-55
2021/04/14 11:19:34;;;;;;;6.50;2.20;;;;;;;;;;3587890;40;20040;-55
2021/04/14 11:22:05;;;;;;;4.70;2.10;;;;;;;;;;3588485;40;20121;-54
2021/04/14 11:24:46;;;;;;;3.80;2.30;;;;;;;;;;3591183;39;20028;-53
2021/04/14 11:27:23;;;;;;;6.28;2.30;;;;;;;;;;3587546;40;20024;-55
2021/04/14 11:29:49;;;;;;;4.40;1.90;;;;;;;;;;3587905;40;20129;-56
2021/04/14 11:32:19;;;;;;;4.78;2.65;;;;;;;;;;3588033;40;20379;-53
2021/04/14 11:35:38;;;;;;;5.18;2.15;;;;;;;;;;3587139;40;20308;-55
2021/04/14 11:38:04;;;;;;;5.93;2.38;;;;;;;;;;3587412;39;20048;-55
2021/04/14 11:40:34;;;;;;;5.90;2.38;;;;;;;;;;3589440;40;20445;-55
2021/04/14 11:43:25;;;;;;;6.05;2.33;;;;;;;;;;3588046;39;20075;-54
2021/04/14 11:45:57;;;;;;;4.88;2.65;;;;;;;;;;3587975;40;20048;-55
2021/04/14 11:48:32;;;;;;;4.68;1.92;;;;;;;;;;3588566;39;20032;-55
2021/04/14 11:51:10;;;;;;;4.93;2.28;;;;;;;;;;3587660;40;20032;-56
2021/04/14 11:53:48;;;;;;;3.65;2.03;;;;;;;;;;3587657;40;20125;-54
2021/04/14 11:56:24;;;;;;;8.52;2.00;;;;;;;;;;3587476;40;20507;-56
2021/04/14 11:58:51;;;;;;;6.60;3.33;;;;;;;;;;3587108;40;20533;-53
2021/04/14 12:01:23;;;;;;;3.78;2.00;;;;;;;;;;3587775;40;20391;-56
2021/04/14 12:03:49;;;;;;;4.65;2.47;;;;;;;;;;3589759;39;20075;-56
2021/04/14 12:06:15;;;;;;;3.78;2.10;;;;;;;;;;3589052;39;20044;-54
2021/04/14 12:08:40;;;;;;;3.58;1.83;;;;;;;;;;3587402;40;20129;-56
2021/04/14 12:11:15;;;;;;;4.55;1.80;;;;;;;;;;3587401;40;20618;-51
2021/04/14 12:13:40;;;;;;;5.15;2.30;;;;;;;;;;3588557;40;20510;-56
2021/04/14 12:16:06;;;;;;;4.20;2.00;;;;;;;;;;3587540;40;20037;-56
2021/04/14 12:18:31;;;;;;;3.97;2.03;;;;;;;;;;3588089;39;20268;-56
2021/04/14 12:20:57;;;;;;;6.45;2.40;;;;;;;;;;3587621;40;20364;-56
2021/04/14 12:23:22;;;;;;;6.45;1.92;;;;;;;;;;3588685;40;20051;-56
2021/04/14 12:25:47;;;;;;;7.97;2.30;;;;;;;;;;3588632;39;20304;-55
2021/04/14 12:28:13;;;;;;;8.48;2.22;;;;;;;;;;3587685;40;20060;-55
2021/04/14 12:30:38;;;;;;;3.42;1.90;;;;;;;;;;3588250;40;20036;-54
2021/04/14 12:33:03;;;;;;;5.53;2.63;;;;;;;;;;3586162;40;20088;-55
2021/04/14 12:35:29;;;;;;;7.88;2.22;;;;;;;;;;3587799;40;20036;-57
2021/04/14 12:37:55;;;;;;;4.45;2.20;;;;;;;;;;3588229;39;20103;-55
2021/04/14 12:40:21;;;;;;;4.63;2.03;;;;;;;;;;3587349;40;20130;-53
2021/04/14 12:42:47;;;;;;;6.53;2.10;;;;;;;;;;3589318;39;20044;-57
2021/04/14 12:45:27;;;;;;;7.47;2.08;;;;;;;;;;3586978;40;20040;-56
2021/04/14 12:47:52;;;;;;;5.13;2.50;;;;;;;;;;3587544;39;20048;-55
2021/04/14 12:50:18;;;;;;;4.25;2.38;;;;;;;;;;3588433;40;20114;-54
2021/04/14 12:52:46;;;;;;;8.70;2.50;;;;;;;;;;3588455;40;21147;-54
2021/04/14 12:55:16;;;;;;;4.95;2.05;;;;;;;;;;3588158;39;20048;-56
2021/04/14 12:57:42;;;;;;;4.13;2.25;;;;;;;;;;3587614;40;20129;-53
2021/04/14 13:00:12;;;;;;;8.23;2.15;;;;;;;;;;3588588;40;20033;-54
2021/04/14 13:02:42;;;;;;;4.75;2.50;;;;;;;;;;3590391;40;20241;-56
2021/04/14 13:05:10;;;;;;;4.68;2.22;;;;;;;;;;3591443;39;20040;-54
2021/04/14 13:07:43;;;;;;;7.25;2.28;;;;;;;;;;3589724;39;20065;-56
2021/04/14 13:10:12;;;;;;;5.25;2.15;;;;;;;;;;3589475;40;20382;-53
2021/04/14 13:12:39;;;;;;;5.28;2.00;;;;;;;;;;3589771;40;20127;-53
2021/04/14 13:15:09;;;;;;;5.10;1.98;;;;;;;;;;3589029;40;20121;-54
2021/04/14 13:17:38;;;;;;;9.45;2.08;;;;;;;;;;3588799;39;20319;-54
2021/04/14 13:20:05;;;;;;;4.13;2.05;;;;;;;;;;3590789;39;20265;-53
2021/04/14 13:22:38;;;;;;;4.57;2.70;;;;;;;;;;3588684;40;20048;-56
2021/04/14 13:25:20;;;;;;;4.28;2.60;;;;;;;;;;3589160;40;20044;-54
2021/04/14 13:28:14;;;;;;;3.90;2.22;;;;;;;;;;3588625;40;20036;-55
2021/04/14 13:30:54;;;;;;;4.57;2.20;;;;;;;;;;3588648;39;20033;-55
2021/04/14 13:33:32;;;;;;;4.68;1.70;;;;;;;;;;3589270;39;20032;-55
2021/04/14 13:36:08;;;;;;;4.47;1.83;;;;;;;;;;3588541;40;20118;-53
2021/04/14 13:38:34;;;;;;;4.28;2.10;;;;;;;;;;3589870;40;20042;-53
2021/04/14 13:41:29;;;;;;;5.22;1.98;;;;;;;;;;3588659;40;20080;-55
2021/04/14 13:44:14;;;;;;;4.97;2.00;;;;;;;;;;3588565;40;20044;-54
2021/04/14 13:46:46;;;;;;;4.85;2.15;;;;;;;;;;3590693;39;20283;-53
2021/04/14 13:49:25;;;;;;;8.02;1.95;;;;;;;;;;3589123;40;20032;-57
2021/04/14 13:51:59;;;;;;;9.98;2.28;;;;;;;;;;3587422;40;20116;-53
2021/04/14 13:54:25;;;;;;;4.25;1.98;;;;;;;;;;3590135;40;20040;-54
2021/04/14 13:56:53;;;;;;;6.68;1.83;;;;;;;;;;3587714;40;20040;-54
2021/04/14 13:59:37;;;;;;;4.43;2.20;;;;;;;;;;3588794;39;20055;-54
2021/04/14 14:02:22;;;;;;;4.35;1.88;;;;;;;;;;3591182;39;20032;-53
2021/04/14 14:04:49;;;;;;;4.43;1.83;;;;;;;;;;3589054;39;20072;-54
2021/04/14 14:07:30;;;;;;;4.95;2.13;;;;;;;;;;3587447;40;20068;-54
2021/04/14 14:10:14;;;;;;;9.13;3.63;;;;;;;;;;3588830;40;20060;-56
2021/04/14 14:12:41;;;;;;;9.60;4.38;;;;;;;;;;3589056;40;20040;-54
2021/04/14 14:15:22;;;;;;;11.05;3.08;;;;;;;;;;3588426;40;20033;-55
2021/04/14 14:17:49;;;;;;;4.15;2.05;;;;;;;;;;3588536;39;20039;-54
2021/04/14 14:20:25;;;;;;;3.42;1.73;;;;;;;;;;3588757;40;20048;-57
2021/04/14 14:23:01;;;;;;;4.72;2.35;;;;;;;;;;3588495;40;20040;-56
2021/04/14 14:25:26;;;;;;;3.40;1.80;;;;;;;;;;3588826;40;20037;-55
2021/04/14 14:27:52;;;;;;;4.65;1.90;;;;;;;;;;3589657;39;20461;-52
2021/04/14 14:30:18;;;;;;;4.75;1.88;;;;;;;;;;3588206;40;20088;-53
2021/04/14 14:32:43;;;;;;;4.88;2.28;;;;;;;;;;3587880;40;20040;-55
2021/04/14 14:35:10;;;;;;;3.78;2.00;;;;;;;;;;3588390;40;20045;-55
2021/04/14 14:37:51;;;;;;;3.10;1.70;;;;;;;;;;3588993;39;20032;-55
2021/04/14 14:40:19;;;;;;;4.63;1.98;;;;;;;;;;3588558;40;20029;-55
2021/04/14 14:43:01;;;;;;;4.10;1.90;;;;;;;;;;3587644;40;20575;-56
2021/04/14 14:45:29;;;;;;;7.75;2.10;;;;;;;;;;3589067;40;20048;-54
2021/04/14 14:48:22;;;;;;;3.85;1.73;;;;;;;;;;3588931;39;20045;-54
2021/04/14 14:50:52;;;;;;;3.78;1.77;;;;;;;;;;3590522;39;20488;-57
2021/04/14 14:53:19;;;;;;;4.88;2.13;;;;;;;;;;3589710;40;20049;-55
2021/04/14 14:55:46;;;;;;;4.07;1.55;;;;;;;;;;3589104;39;20036;-54
2021/04/14 14:58:21;;;;;;;6.20;1.70;;;;;;;;;;3587973;40;20360;-58
2021/04/14 15:00:46;;;;;;;4.53;1.85;;;;;;;;;;3589062;39;20034;-53
2021/04/14 15:03:12;;;;;;;5.43;2.00;;;;;;;;;;3587411;40;20044;-54